sensor_id;sensor_type;location;lat;lon;timestamp;temperature;humidity
29547;DHT22;40782;47.264;11.330;2023-03-01T00:01:23;1.10;99.90
29547;DHT22;40782;47.264;11.330;2023-03-01T00:03:51;1.00;99.90
29547;DHT22;40782;47.264;11.330;2023-03-01T00:06:19;1.10;99.90
29547;DHT22;40782;47.264;11.330;2023-03-01T00:08:46;1.10;99.90
29547;DHT22;40782;47.264;11.330;2023-03-01T00:11:14;1.10;99.90
29547;DHT22;40782;47.264;11.330;2023-03-01T00:13:42;1.20;99.90
29547;DHT22;40782;47.264;11.330;2023-03-01T00:16:10;1.10;99.90
29547;DHT22;40782;47.264;11.330;2023-03-01T00:18:39;1.10;99.90
29547;DHT22;40782;47.264;11.330;2023-03-01T00:21:07;1.30;99.90
29547;DHT22;40782;47.264;11.330;2023-03-01T00:23:34;1.30;99.90
29547;DHT22;40782;47.264;11.330;2023-03-01T00:26:01;1.20;99.90
29547;DHT22;40782;47.264;11.330;2023-03-01T00:28:29;1.30;99.90
29547;DHT22;40782;47.264;11.330;2023-03-01T00:30:56;1.20;99.90
29547;DHT22;40782;47.264;11.330;2023-03-01T00:33:23;1.20;99.90
29547;DHT22;40782;47.264;11.330;2023-03-01T00:35:51;1.20;99.90
29547;DHT22;40782;47.264;11.330;2023-03-01T00:38:18;1.20;99.90
29547;DHT22;40782;47.264;11.330;2023-03-01T00:40:45;1.20;99.90
29547;DHT22;40782;47.264;11.330;2023-03-01T00:43:12;1.20;99.90
29547;DHT22;40782;47.264;11.330;2023-03-01T00:45:39;1.10;99.90
29547;DHT22;40782;47.264;11.330;2023-03-01T00:48:06;1.10;99.90
29547;DHT22;40782;47.264;11.330;2023-03-01T00:50:33;1.00;99.90
29547;DHT22;40782;47.264;11.330;2023-03-01T00:53:01;1.00;99.90
29547;DHT22;40782;47.264;11.330;2023-03-01T00:55:30;1.00;99.90
29547;DHT22;40782;47.264;11.330;2023-03-01T00:57:57;1.00;99.90
29547;DHT22;40782;47.264;11.330;2023-03-01T01:00:24;0.90;99.90
29547;DHT22;40782;47.264;11.330;2023-03-01T01:02:53;0.90;99.90
29547;DHT22;40782;47.264;11.330;2023-03-01T01:05:20;1.00;99.90
29547;DHT22;40782;47.264;11.330;2023-03-01T01:07:47;1.00;99.90
29547;DHT22;40782;47.264;11.330;2023-03-01T01:10:16;1.00;99.90
29547;DHT22;40782;47.264;11.330;2023-03-01T01:12:46;1.10;99.90
29547;DHT22;40782;47.264;11.330;2023-03-01T01:15:13;1.10;99.90
29547;DHT22;40782;47.264;11.330;2023-03-01T01:17:42;1.30;99.90
29547;DHT22;40782;47.264;11.330;2023-03-01T01:20:10;1.20;99.90
29547;DHT22;40782;47.264;11.330;2023-03-01T01:22:37;1.20;99.90
29547;DHT22;40782;47.264;11.330;2023-03-01T01:25:04;1.10;99.90
29547;DHT22;40782;47.264;11.330;2023-03-01T01:27:33;1.10;99.90
29547;DHT22;40782;47.264;11.330;2023-03-01T01:30:00;1.20;99.90
29547;DHT22;40782;47.264;11.330;2023-03-01T01:32:27;1.20;99.90
29547;DHT22;40782;47.264;11.330;2023-03-01T01:34:56;1.20;99.90
29547;DHT22;40782;47.264;11.330;2023-03-01T01:37:23;1.20;99.90
29547;DHT22;40782;47.264;11.330;2023-03-01T01:39:56;1.20;99.90
29547;DHT22;40782;47.264;11.330;2023-03-01T01:42:23;1.30;99.90
29547;DHT22;40782;47.264;11.330;2023-03-01T01:47:34;1.40;99.90
29547;DHT22;40782;47.264;11.330;2023-03-01T01:50:01;1.40;99.90
29547;DHT22;40782;47.264;11.330;2023-03-01T01:52:29;1.30;99.90
29547;DHT22;40782;47.264;11.330;2023-03-01T01:54:59;1.30;99.90
29547;DHT22;40782;47.264;11.330;2023-03-01T01:57:29;1.30;99.90
29547;DHT22;40782;47.264;11.330;2023-03-01T02:00:04;1.50;99.90
29547;DHT22;40782;47.264;11.330;2023-03-01T02:02:32;1.50;99.90
29547;DHT22;40782;47.264;11.330;2023-03-01T02:05:03;1.60;99.90
29547;DHT22;40782;47.264;11.330;2023-03-01T02:07:35;1.80;99.90
29547;DHT22;40782;47.264;11.330;2023-03-01T02:10:05;1.90;99.90
29547;DHT22;40782;47.264;11.330;2023-03-01T02:12:32;1.90;99.90
29547;DHT22;40782;47.264;11.330;2023-03-01T02:14:59;1.90;99.90
29547;DHT22;40782;47.264;11.330;2023-03-01T02:17:26;1.80;99.90
29547;DHT22;40782;47.264;11.330;2023-03-01T02:19:57;1.70;99.90
29547;DHT22;40782;47.264;11.330;2023-03-01T02:22:29;1.60;99.90
29547;DHT22;40782;47.264;11.330;2023-03-01T02:25:06;1.50;99.90
29547;DHT22;40782;47.264;11.330;2023-03-01T02:27:38;1.60;99.90
29547;DHT22;40782;47.264;11.330;2023-03-01T02:30:10;1.60;99.90
29547;DHT22;40782;47.264;11.330;2023-03-01T02:32:38;1.70;99.90
29547;DHT22;40782;47.264;11.330;2023-03-01T02:35:08;1.80;99.90
29547;DHT22;40782;47.264;11.330;2023-03-01T02:37:35;1.70;99.90
29547;DHT22;40782;47.264;11.330;2023-03-01T02:40:03;1.60;99.90
29547;DHT22;40782;47.264;11.330;2023-03-01T02:42:33;1.60;99.90
29547;DHT22;40782;47.264;11.330;2023-03-01T02:45:01;1.60;99.90
29547;DHT22;40782;47.264;11.330;2023-03-01T02:47:30;1.60;99.90
29547;DHT22;40782;47.264;11.330;2023-03-01T02:49:57;1.50;99.90
29547;DHT22;40782;47.264;11.330;2023-03-01T02:52:30;1.60;99.90
29547;DHT22;40782;47.264;11.330;2023-03-01T02:54:58;1.60;99.90
29547;DHT22;40782;47.264;11.330;2023-03-01T02:57:27;1.70;99.90
29547;DHT22;40782;47.264;11.330;2023-03-01T02:59:55;1.70;99.90
29547;DHT22;40782;47.264;11.330;2023-03-01T03:02:24;1.60;99.90
29547;DHT22;40782;47.264;11.330;2023-03-01T03:05:08;1.50;99.90
29547;DHT22;40782;47.264;11.330;2023-03-01T03:07:36;1.50;99.90
29547;DHT22;40782;47.264;11.330;2023-03-01T03:10:03;1.50;99.90
29547;DHT22;40782;47.264;11.330;2023-03-01T03:12:31;1.70;99.90
29547;DHT22;40782;47.264;11.330;2023-03-01T03:14:58;1.70;99.90
29547;DHT22;40782;47.264;11.330;2023-03-01T03:17:25;1.70;99.90
29547;DHT22;40782;47.264;11.330;2023-03-01T03:19:52;1.50;99.90
29547;DHT22;40782;47.264;11.330;2023-03-01T03:22:20;1.30;99.90
29547;DHT22;40782;47.264;11.330;2023-03-01T03:24:47;1.20;99.90
29547;DHT22;40782;47.264;11.330;2023-03-01T03:27:14;1.20;99.90
29547;DHT22;40782;47.264;11.330;2023-03-01T03:29:41;1.20;99.90
29547;DHT22;40782;47.264;11.330;2023-03-01T03:32:08;1.10;99.90
29547;DHT22;40782;47.264;11.330;2023-03-01T03:34:36;1.20;99.90
29547;DHT22;40782;47.264;11.330;2023-03-01T03:37:03;1.20;99.90
29547;DHT22;40782;47.264;11.330;2023-03-01T03:39:51;1.10;99.90
29547;DHT22;40782;47.264;11.330;2023-03-01T03:42:20;1.10;99.90
29547;DHT22;40782;47.264;11.330;2023-03-01T03:44:47;1.10;99.90
29547;DHT22;40782;47.264;11.330;2023-03-01T03:47:14;1.10;99.90
29547;DHT22;40782;47.264;11.330;2023-03-01T03:49:41;1.10;99.90
29547;DHT22;40782;47.264;11.330;2023-03-01T03:52:08;1.10;99.90
29547;DHT22;40782;47.264;11.330;2023-03-01T03:54:39;1.20;99.90
29547;DHT22;40782;47.264;11.330;2023-03-01T03:57:07;1.30;99.90
29547;DHT22;40782;47.264;11.330;2023-03-01T03:59:34;1.40;99.90
29547;DHT22;40782;47.264;11.330;2023-03-01T04:02:01;1.60;99.90
29547;DHT22;40782;47.264;11.330;2023-03-01T04:04:28;1.60;99.90
29547;DHT22;40782;47.264;11.330;2023-03-01T04:06:55;1.40;99.90
29547;DHT22;40782;47.264;11.330;2023-03-01T04:09:22;1.30;99.90
29547;DHT22;40782;47.264;11.330;2023-03-01T04:11:50;1.40;99.90
29547;DHT22;40782;47.264;11.330;2023-03-01T04:14:18;1.50;99.90
29547;DHT22;40782;47.264;11.330;2023-03-01T04:16:45;1.60;99.90
29547;DHT22;40782;47.264;11.330;2023-03-01T04:19:12;1.60;99.90
29547;DHT22;40782;47.264;11.330;2023-03-01T04:21:40;1.60;99.90
29547;DHT22;40782;47.264;11.330;2023-03-01T04:24:07;1.70;99.90
29547;DHT22;40782;47.264;11.330;2023-03-01T04:26:35;1.90;99.90
29547;DHT22;40782;47.264;11.330;2023-03-01T04:29:02;1.90;99.90
29547;DHT22;40782;47.264;11.330;2023-03-01T04:31:30;1.90;99.90
29547;DHT22;40782;47.264;11.330;2023-03-01T04:33:57;1.90;99.90
29547;DHT22;40782;47.264;11.330;2023-03-01T04:36:26;1.80;99.90
29547;DHT22;40782;47.264;11.330;2023-03-01T04:38:53;1.70;99.90
29547;DHT22;40782;47.264;11.330;2023-03-01T04:41:21;1.70;99.90
29547;DHT22;40782;47.264;11.330;2023-03-01T04:43:49;1.60;99.90
29547;DHT22;40782;47.264;11.330;2023-03-01T04:46:18;1.60;99.90
29547;DHT22;40782;47.264;11.330;2023-03-01T04:48:47;1.60;99.90
29547;DHT22;40782;47.264;11.330;2023-03-01T04:51:14;1.70;99.90
29547;DHT22;40782;47.264;11.330;2023-03-01T04:53:41;1.80;99.90
29547;DHT22;40782;47.264;11.330;2023-03-01T04:56:09;1.80;99.90
29547;DHT22;40782;47.264;11.330;2023-03-01T04:58:36;1.80;99.90
29547;DHT22;40782;47.264;11.330;2023-03-01T05:01:07;1.80;99.90
29547;DHT22;40782;47.264;11.330;2023-03-01T05:03:40;1.80;99.90
29547;DHT22;40782;47.264;11.330;2023-03-01T05:06:09;1.70;99.90
29547;DHT22;40782;47.264;11.330;2023-03-01T05:08:36;1.70;99.90
29547;DHT22;40782;47.264;11.330;2023-03-01T05:11:04;1.80;99.90
29547;DHT22;40782;47.264;11.330;2023-03-01T05:13:34;1.80;99.90
29547;DHT22;40782;47.264;11.330;2023-03-01T05:16:02;1.70;99.90
29547;DHT22;40782;47.264;11.330;2023-03-01T05:18:30;1.60;99.90
29547;DHT22;40782;47.264;11.330;2023-03-01T05:21:01;1.60;99.90
29547;DHT22;40782;47.264;11.330;2023-03-01T05:23:30;1.70;99.90
29547;DHT22;40782;47.264;11.330;2023-03-01T05:25:58;1.70;99.90
29547;DHT22;40782;47.264;11.330;2023-03-01T05:28:26;1.80;99.90
29547;DHT22;40782;47.264;11.330;2023-03-01T05:30:53;1.80;99.90
29547;DHT22;40782;47.264;11.330;2023-03-01T05:33:20;1.80;99.90
29547;DHT22;40782;47.264;11.330;2023-03-01T05:35:47;1.80;99.90
29547;DHT22;40782;47.264;11.330;2023-03-01T05:38:15;1.80;99.90
29547;DHT22;40782;47.264;11.330;2023-03-01T05:40:44;1.80;99.90
29547;DHT22;40782;47.264;11.330;2023-03-01T05:43:12;1.70;99.90
29547;DHT22;40782;47.264;11.330;2023-03-01T05:45:40;1.70;99.90
29547;DHT22;40782;47.264;11.330;2023-03-01T05:48:07;1.60;99.90
29547;DHT22;40782;47.264;11.330;2023-03-01T05:50:35;1.50;99.90
29547;DHT22;40782;47.264;11.330;2023-03-01T05:53:03;1.60;99.90
29547;DHT22;40782;47.264;11.330;2023-03-01T05:55:31;1.60;99.90
29547;DHT22;40782;47.264;11.330;2023-03-01T05:58:00;1.50;99.90
29547;DHT22;40782;47.264;11.330;2023-03-01T06:00:28;1.50;99.90
29547;DHT22;40782;47.264;11.330;2023-03-01T06:02:56;1.60;99.90
29547;DHT22;40782;47.264;11.330;2023-03-01T06:05:23;1.50;99.90
29547;DHT22;40782;47.264;11.330;2023-03-01T06:07:51;1.40;99.90
29547;DHT22;40782;47.264;11.330;2023-03-01T06:10:18;1.50;99.90
29547;DHT22;40782;47.264;11.330;2023-03-01T06:12:46;1.60;99.90
29547;DHT22;40782;47.264;11.330;2023-03-01T06:15:15;1.60;99.90
29547;DHT22;40782;47.264;11.330;2023-03-01T06:17:43;1.70;99.90
29547;DHT22;40782;47.264;11.330;2023-03-01T06:20:12;1.70;99.90
29547;DHT22;40782;47.264;11.330;2023-03-01T06:22:40;1.70;99.90
29547;DHT22;40782;47.264;11.330;2023-03-01T06:25:07;1.60;99.90
29547;DHT22;40782;47.264;11.330;2023-03-01T06:27:34;1.50;99.90
29547;DHT22;40782;47.264;11.330;2023-03-01T06:30:02;1.60;99.90
29547;DHT22;40782;47.264;11.330;2023-03-01T06:32:31;1.60;99.90
29547;DHT22;40782;47.264;11.330;2023-03-01T06:34:58;1.80;99.90
29547;DHT22;40782;47.264;11.330;2023-03-01T06:37:25;1.80;99.90
29547;DHT22;40782;47.264;11.330;2023-03-01T06:39:52;1.80;99.90
29547;DHT22;40782;47.264;11.330;2023-03-01T06:42:19;1.90;99.90
29547;DHT22;40782;47.264;11.330;2023-03-01T06:44:46;1.90;99.90
29547;DHT22;40782;47.264;11.330;2023-03-01T06:47:13;1.90;99.90
29547;DHT22;40782;47.264;11.330;2023-03-01T06:49:42;1.90;99.90
29547;DHT22;40782;47.264;11.330;2023-03-01T06:52:09;1.90;99.90
29547;DHT22;40782;47.264;11.330;2023-03-01T06:54:36;1.90;99.90
29547;DHT22;40782;47.264;11.330;2023-03-01T06:57:03;1.90;99.90
29547;DHT22;40782;47.264;11.330;2023-03-01T06:59:30;1.90;99.90
29547;DHT22;40782;47.264;11.330;2023-03-01T07:01:57;1.80;99.90
29547;DHT22;40782;47.264;11.330;2023-03-01T07:04:24;1.70;99.90
29547;DHT22;40782;47.264;11.330;2023-03-01T07:06:55;1.70;99.90
29547;DHT22;40782;47.264;11.330;2023-03-01T07:09:22;1.80;99.90
29547;DHT22;40782;47.264;11.330;2023-03-01T07:11:49;1.90;99.90
29547;DHT22;40782;47.264;11.330;2023-03-01T07:14:17;2.00;99.90
29547;DHT22;40782;47.264;11.330;2023-03-01T07:16:45;2.10;99.90
29547;DHT22;40782;47.264;11.330;2023-03-01T07:19:12;2.20;99.90
29547;DHT22;40782;47.264;11.330;2023-03-01T07:21:39;2.30;99.90
29547;DHT22;40782;47.264;11.330;2023-03-01T07:24:08;2.40;99.90
29547;DHT22;40782;47.264;11.330;2023-03-01T07:26:35;2.20;99.90
29547;DHT22;40782;47.264;11.330;2023-03-01T07:29:02;2.10;99.90
29547;DHT22;40782;47.264;11.330;2023-03-01T07:31:30;2.10;99.90
29547;DHT22;40782;47.264;11.330;2023-03-01T07:33:57;2.10;99.90
29547;DHT22;40782;47.264;11.330;2023-03-01T07:36:24;2.10;99.90
29547;DHT22;40782;47.264;11.330;2023-03-01T07:38:51;2.20;99.90
29547;DHT22;40782;47.264;11.330;2023-03-01T07:41:20;2.30;99.90
29547;DHT22;40782;47.264;11.330;2023-03-01T07:43:47;2.40;99.90
29547;DHT22;40782;47.264;11.330;2023-03-01T07:46:14;2.50;99.90
29547;DHT22;40782;47.264;11.330;2023-03-01T07:48:41;2.60;99.90
29547;DHT22;40782;47.264;11.330;2023-03-01T07:51:09;2.70;99.90
29547;DHT22;40782;47.264;11.330;2023-03-01T07:53:36;2.80;99.90
29547;DHT22;40782;47.264;11.330;2023-03-01T07:56:04;2.90;99.90
29547;DHT22;40782;47.264;11.330;2023-03-01T07:58:34;3.10;99.90
29547;DHT22;40782;47.264;11.330;2023-03-01T08:01:02;3.10;99.90
29547;DHT22;40782;47.264;11.330;2023-03-01T08:03:29;3.10;99.90
29547;DHT22;40782;47.264;11.330;2023-03-01T08:05:58;3.20;99.90
29547;DHT22;40782;47.264;11.330;2023-03-01T08:08:25;3.20;99.90
29547;DHT22;40782;47.264;11.330;2023-03-01T08:10:52;3.00;99.90
29547;DHT22;40782;47.264;11.330;2023-03-01T08:13:19;3.20;99.90
29547;DHT22;40782;47.264;11.330;2023-03-01T08:15:49;3.10;99.90
29547;DHT22;40782;47.264;11.330;2023-03-01T08:18:16;3.20;99.90
29547;DHT22;40782;47.264;11.330;2023-03-01T08:20:43;3.20;99.90
29547;DHT22;40782;47.264;11.330;2023-03-01T08:23:11;3.30;99.90
29547;DHT22;40782;47.264;11.330;2023-03-01T08:25:38;3.20;99.90
29547;DHT22;40782;47.264;11.330;2023-03-01T08:28:05;3.30;99.90
29547;DHT22;40782;47.264;11.330;2023-03-01T08:30:32;3.50;99.90
29547;DHT22;40782;47.264;11.330;2023-03-01T08:33:01;3.80;99.90
29547;DHT22;40782;47.264;11.330;2023-03-01T08:35:28;3.90;99.90
29547;DHT22;40782;47.264;11.330;2023-03-01T08:37:55;4.00;99.90
29547;DHT22;40782;47.264;11.330;2023-03-01T08:40:22;4.00;99.90
29547;DHT22;40782;47.264;11.330;2023-03-01T08:42:49;4.30;99.90
29547;DHT22;40782;47.264;11.330;2023-03-01T08:45:16;4.40;99.90
29547;DHT22;40782;47.264;11.330;2023-03-01T08:47:44;4.60;99.90
29547;DHT22;40782;47.264;11.330;2023-03-01T08:50:13;4.60;99.90
29547;DHT22;40782;47.264;11.330;2023-03-01T08:52:40;4.40;99.90
29547;DHT22;40782;47.264;11.330;2023-03-01T08:55:08;4.30;99.90
29547;DHT22;40782;47.264;11.330;2023-03-01T08:57:35;3.80;99.90
29547;DHT22;40782;47.264;11.330;2023-03-01T09:00:02;3.70;99.90
29547;DHT22;40782;47.264;11.330;2023-03-01T09:02:34;3.40;99.90
29547;DHT22;40782;47.264;11.330;2023-03-01T09:05:01;3.30;99.90
29547;DHT22;40782;47.264;11.330;2023-03-01T09:07:29;3.20;99.90
29547;DHT22;40782;47.264;11.330;2023-03-01T09:09:56;3.20;99.90
29547;DHT22;40782;47.264;11.330;2023-03-01T09:12:23;3.40;99.90
29547;DHT22;40782;47.264;11.330;2023-03-01T09:14:51;3.40;99.90
29547;DHT22;40782;47.264;11.330;2023-03-01T09:17:18;3.50;99.90
29547;DHT22;40782;47.264;11.330;2023-03-01T09:19:47;3.80;99.90
29547;DHT22;40782;47.264;11.330;2023-03-01T09:22:14;3.80;99.90
29547;DHT22;40782;47.264;11.330;2023-03-01T09:24:43;4.10;99.90
29547;DHT22;40782;47.264;11.330;2023-03-01T09:27:10;4.20;99.90
29547;DHT22;40782;47.264;11.330;2023-03-01T09:29:38;4.20;99.90
29547;DHT22;40782;47.264;11.330;2023-03-01T09:32:05;4.50;99.90
29547;DHT22;40782;47.264;11.330;2023-03-01T09:34:33;4.50;99.90
29547;DHT22;40782;47.264;11.330;2023-03-01T09:37:20;4.40;99.90
29547;DHT22;40782;47.264;11.330;2023-03-01T09:39:49;4.50;99.90
29547;DHT22;40782;47.264;11.330;2023-03-01T09:42:16;4.40;99.90
29547;DHT22;40782;47.264;11.330;2023-03-01T09:44:43;4.50;99.90
29547;DHT22;40782;47.264;11.330;2023-03-01T09:47:12;4.70;99.90
29547;DHT22;40782;47.264;11.330;2023-03-01T09:49:42;4.50;99.90
29547;DHT22;40782;47.264;11.330;2023-03-01T09:52:17;4.80;99.90
29547;DHT22;40782;47.264;11.330;2023-03-01T09:54:46;5.20;99.90
29547;DHT22;40782;47.264;11.330;2023-03-01T09:57:17;5.30;99.90
29547;DHT22;40782;47.264;11.330;2023-03-01T09:59:51;5.50;99.90
29547;DHT22;40782;47.264;11.330;2023-03-01T10:02:24;5.50;99.90
29547;DHT22;40782;47.264;11.330;2023-03-01T10:04:52;5.60;99.90
29547;DHT22;40782;47.264;11.330;2023-03-01T10:07:22;5.70;99.90
29547;DHT22;40782;47.264;11.330;2023-03-01T10:09:53;5.60;99.90
29547;DHT22;40782;47.264;11.330;2023-03-01T10:12:23;5.70;99.90
29547;DHT22;40782;47.264;11.330;2023-03-01T10:14:54;6.00;99.90
29547;DHT22;40782;47.264;11.330;2023-03-01T10:17:24;6.30;99.90
29547;DHT22;40782;47.264;11.330;2023-03-01T10:19:52;6.10;99.90
29547;DHT22;40782;47.264;11.330;2023-03-01T10:22:27;6.50;99.90
29547;DHT22;40782;47.264;11.330;2023-03-01T10:24:56;7.00;99.90
29547;DHT22;40782;47.264;11.330;2023-03-01T10:27:26;6.80;99.90
29547;DHT22;40782;47.264;11.330;2023-03-01T10:29:58;6.60;99.90
29547;DHT22;40782;47.264;11.330;2023-03-01T10:32:28;6.80;99.90
29547;DHT22;40782;47.264;11.330;2023-03-01T10:34:56;6.80;99.90
29547;DHT22;40782;47.264;11.330;2023-03-01T10:37:23;6.70;99.90
29547;DHT22;40782;47.264;11.330;2023-03-01T10:40:00;6.60;99.90
29547;DHT22;40782;47.264;11.330;2023-03-01T10:42:32;7.10;99.90
29547;DHT22;40782;47.264;11.330;2023-03-01T10:45:15;7.90;99.90
29547;DHT22;40782;47.264;11.330;2023-03-01T10:47:42;7.80;99.90
29547;DHT22;40782;47.264;11.330;2023-03-01T10:50:17;7.60;99.90
29547;DHT22;40782;47.264;11.330;2023-03-01T10:52:55;8.20;99.90
29547;DHT22;40782;47.264;11.330;2023-03-01T10:55:25;8.50;99.90
29547;DHT22;40782;47.264;11.330;2023-03-01T10:58:07;9.10;99.90
29547;DHT22;40782;47.264;11.330;2023-03-01T11:00:36;9.40;99.90
29547;DHT22;40782;47.264;11.330;2023-03-01T11:03:13;9.00;99.90
29547;DHT22;40782;47.264;11.330;2023-03-01T11:05:50;9.50;99.90
29547;DHT22;40782;47.264;11.330;2023-03-01T11:08:28;9.70;99.90
29547;DHT22;40782;47.264;11.330;2023-03-01T11:11:03;10.20;99.90
29547;DHT22;40782;47.264;11.330;2023-03-01T11:13:31;10.90;99.90
29547;DHT22;40782;47.264;11.330;2023-03-01T11:15:59;11.50;99.90
29547;DHT22;40782;47.264;11.330;2023-03-01T11:18:27;11.50;99.90
29547;DHT22;40782;47.264;11.330;2023-03-01T11:20:55;11.40;99.90
29547;DHT22;40782;47.264;11.330;2023-03-01T11:23:23;11.90;99.90
29547;DHT22;40782;47.264;11.330;2023-03-01T11:25:51;11.90;99.90
29547;DHT22;40782;47.264;11.330;2023-03-01T11:28:21;11.90;99.90
29547;DHT22;40782;47.264;11.330;2023-03-01T11:30:51;11.80;99.90
29547;DHT22;40782;47.264;11.330;2023-03-01T11:33:23;12.10;99.90
29547;DHT22;40782;47.264;11.330;2023-03-01T11:35:53;12.50;99.90
29547;DHT22;40782;47.264;11.330;2023-03-01T11:38:23;12.90;99.90
29547;DHT22;40782;47.264;11.330;2023-03-01T11:40:52;13.00;99.90
29547;DHT22;40782;47.264;11.330;2023-03-01T11:43:26;12.90;99.90
29547;DHT22;40782;47.264;11.330;2023-03-01T11:46:01;12.80;99.90
29547;DHT22;40782;47.264;11.330;2023-03-01T11:48:41;13.30;99.90
29547;DHT22;40782;47.264;11.330;2023-03-01T11:51:13;13.80;99.90
29547;DHT22;40782;47.264;11.330;2023-03-01T11:53:50;14.60;99.90
29547;DHT22;40782;47.264;11.330;2023-03-01T11:56:22;14.40;99.90
29547;DHT22;40782;47.264;11.330;2023-03-01T11:59:16;14.40;99.90
29547;DHT22;40782;47.264;11.330;2023-03-01T12:01:54;13.70;99.90
29547;DHT22;40782;47.264;11.330;2023-03-01T12:04:29;13.60;99.90
29547;DHT22;40782;47.264;11.330;2023-03-01T12:06:59;12.90;99.90
29547;DHT22;40782;47.264;11.330;2023-03-01T12:09:36;13.20;99.90
29547;DHT22;40782;47.264;11.330;2023-03-01T12:12:09;14.10;99.90
29547;DHT22;40782;47.264;11.330;2023-03-01T12:17:25;15.60;99.90
29547;DHT22;40782;47.264;11.330;2023-03-01T12:20:02;15.80;99.90
29547;DHT22;40782;47.264;11.330;2023-03-01T12:22:35;16.20;99.90
29547;DHT22;40782;47.264;11.330;2023-03-01T12:25:10;16.40;99.90
29547;DHT22;40782;47.264;11.330;2023-03-01T12:27:45;16.70;99.90
29547;DHT22;40782;47.264;11.330;2023-03-01T12:30:21;17.40;99.90
29547;DHT22;40782;47.264;11.330;2023-03-01T12:32:56;17.30;99.90
29547;DHT22;40782;47.264;11.330;2023-03-01T12:35:30;17.50;99.90
29547;DHT22;40782;47.264;11.330;2023-03-01T12:38:01;17.60;99.90
29547;DHT22;40782;47.264;11.330;2023-03-01T12:40:34;17.40;98.60
29547;DHT22;40782;47.264;11.330;2023-03-01T12:43:10;17.20;97.80
29547;DHT22;40782;47.264;11.330;2023-03-01T12:45:45;17.60;97.80
29547;DHT22;40782;47.264;11.330;2023-03-01T12:48:20;17.80;97.80
29547;DHT22;40782;47.264;11.330;2023-03-01T12:50:51;18.10;96.10
29547;DHT22;40782;47.264;11.330;2023-03-01T12:53:22;18.30;96.30
29547;DHT22;40782;47.264;11.330;2023-03-01T12:55:50;18.30;93.60
29547;DHT22;40782;47.264;11.330;2023-03-01T12:58:21;18.10;93.80
29547;DHT22;40782;47.264;11.330;2023-03-01T13:00:54;18.30;93.70
29547;DHT22;40782;47.264;11.330;2023-03-01T13:03:29;18.50;92.10
29547;DHT22;40782;47.264;11.330;2023-03-01T13:06:00;18.80;91.60
29547;DHT22;40782;47.264;11.330;2023-03-01T13:08:32;18.80;99.90
29547;DHT22;40782;47.264;11.330;2023-03-01T13:11:04;18.60;89.20
29547;DHT22;40782;47.264;11.330;2023-03-01T13:13:32;18.10;88.00
29547;DHT22;40782;47.264;11.330;2023-03-01T13:16:19;18.00;98.50
29547;DHT22;40782;47.264;11.330;2023-03-01T13:18:48;17.60;87.70
29547;DHT22;40782;47.264;11.330;2023-03-01T13:21:28;17.50;90.10
29547;DHT22;40782;47.264;11.330;2023-03-01T13:23:56;17.90;90.80
29547;DHT22;40782;47.264;11.330;2023-03-01T13:26:23;18.10;90.50
29547;DHT22;40782;47.264;11.330;2023-03-01T13:28:51;17.90;90.00
29547;DHT22;40782;47.264;11.330;2023-03-01T13:34:06;17.60;90.40
29547;DHT22;40782;47.264;11.330;2023-03-01T13:36:54;18.00;89.00
29547;DHT22;40782;47.264;11.330;2023-03-01T13:39:38;18.20;85.70
29547;DHT22;40782;47.264;11.330;2023-03-01T13:44:47;18.60;83.40
29547;DHT22;40782;47.264;11.330;2023-03-01T13:47:16;18.50;85.10
29547;DHT22;40782;47.264;11.330;2023-03-01T13:49:46;18.90;84.90
29547;DHT22;40782;47.264;11.330;2023-03-01T13:52:32;18.90;80.80
29547;DHT22;40782;47.264;11.330;2023-03-01T13:55:02;19.40;79.20
29547;DHT22;40782;47.264;11.330;2023-03-01T13:57:30;19.40;77.50
29547;DHT22;40782;47.264;11.330;2023-03-01T13:59:59;19.40;74.40
29547;DHT22;40782;47.264;11.330;2023-03-01T14:02:26;19.00;73.50
29547;DHT22;40782;47.264;11.330;2023-03-01T14:04:58;19.60;74.90
29547;DHT22;40782;47.264;11.330;2023-03-01T14:07:25;19.60;73.20
29547;DHT22;40782;47.264;11.330;2023-03-01T14:09:55;19.60;72.70
29547;DHT22;40782;47.264;11.330;2023-03-01T14:12:26;20.00;69.00
29547;DHT22;40782;47.264;11.330;2023-03-01T14:14:55;20.20;66.80
29547;DHT22;40782;47.264;11.330;2023-03-01T14:17:28;19.80;66.90
29547;DHT22;40782;47.264;11.330;2023-03-01T14:19:59;19.40;68.20
29547;DHT22;40782;47.264;11.330;2023-03-01T14:22:27;19.20;67.10
29547;DHT22;40782;47.264;11.330;2023-03-01T14:24:56;19.00;69.40
29547;DHT22;40782;47.264;11.330;2023-03-01T14:27:25;19.40;69.60
29547;DHT22;40782;47.264;11.330;2023-03-01T14:29:54;19.60;66.30
29547;DHT22;40782;47.264;11.330;2023-03-01T14:32:22;19.30;64.80
29547;DHT22;40782;47.264;11.330;2023-03-01T14:34:51;19.00;66.00
29547;DHT22;40782;47.264;11.330;2023-03-01T14:37:20;19.40;64.00
29547;DHT22;40782;47.264;11.330;2023-03-01T14:39:48;18.60;63.10
29547;DHT22;40782;47.264;11.330;2023-03-01T14:42:15;18.20;66.20
29547;DHT22;40782;47.264;11.330;2023-03-01T14:44:43;18.10;66.00
29547;DHT22;40782;47.264;11.330;2023-03-01T14:47:11;18.40;67.60
29547;DHT22;40782;47.264;11.330;2023-03-01T14:49:40;18.50;67.40
29547;DHT22;40782;47.264;11.330;2023-03-01T14:52:07;18.60;64.40
29547;DHT22;40782;47.264;11.330;2023-03-01T14:54:46;19.10;63.70
29547;DHT22;40782;47.264;11.330;2023-03-01T14:57:14;19.10;63.00
29547;DHT22;40782;47.264;11.330;2023-03-01T14:59:42;18.90;61.90
29547;DHT22;40782;47.264;11.330;2023-03-01T15:02:11;18.70;62.70
29547;DHT22;40782;47.264;11.330;2023-03-01T15:04:42;18.40;61.70
29547;DHT22;40782;47.264;11.330;2023-03-01T15:07:11;18.00;65.50
29547;DHT22;40782;47.264;11.330;2023-03-01T15:09:39;17.80;64.30
29547;DHT22;40782;47.264;11.330;2023-03-01T15:14:50;18.50;67.60
29547;DHT22;40782;47.264;11.330;2023-03-01T15:17:20;18.30;65.70
29547;DHT22;40782;47.264;11.330;2023-03-01T15:19:47;18.20;67.10
29547;DHT22;40782;47.264;11.330;2023-03-01T15:22:14;18.00;66.50
29547;DHT22;40782;47.264;11.330;2023-03-01T15:24:45;17.40;66.80
29547;DHT22;40782;47.264;11.330;2023-03-01T15:27:14;17.20;67.50
29547;DHT22;40782;47.264;11.330;2023-03-01T15:29:46;16.90;68.00
29547;DHT22;40782;47.264;11.330;2023-03-01T15:32:24;16.80;69.40
29547;DHT22;40782;47.264;11.330;2023-03-01T15:34:52;16.80;69.30
29547;DHT22;40782;47.264;11.330;2023-03-01T15:40:01;16.60;71.10
29547;DHT22;40782;47.264;11.330;2023-03-01T15:42:36;16.40;71.20
29547;DHT22;40782;47.264;11.330;2023-03-01T15:45:09;16.50;72.90
29547;DHT22;40782;47.264;11.330;2023-03-01T15:47:38;16.40;72.40
29547;DHT22;40782;47.264;11.330;2023-03-01T15:50:11;15.80;73.30
29547;DHT22;40782;47.264;11.330;2023-03-01T15:52:42;15.50;75.30
29547;DHT22;40782;47.264;11.330;2023-03-01T15:55:14;15.20;77.70
29547;DHT22;40782;47.264;11.330;2023-03-01T15:57:42;14.60;79.50